sensor_id;sensor_type;location;lat;lon;timestamp;P1;durP1;ratioP1;P2;durP2;ratioP2
36817;SDS011;22761;51.542;16.450;2023-05-03T00:00:06;9.40;;;3.40;;
36817;SDS011;22761;51.542;16.450;2023-05-03T00:05:24;5.90;;;2.80;;
36817;SDS011;22761;51.542;16.450;2023-05-03T00:07:53;8.70;;;2.80;;
36817;SDS011;22761;51.542;16.450;2023-05-03T00:10:21;5.20;;;2.70;;
36817;SDS011;22761;51.542;16.450;2023-05-03T00:12:49;8.80;;;3.10;;
36817;SDS011;22761;51.542;16.450;2023-05-03T00:15:17;9.00;;;3.10;;
36817;SDS011;22761;51.542;16.450;2023-05-03T00:17:46;8.60;;;3.20;;
36817;SDS011;22761;51.542;16.450;2023-05-03T00:20:14;7.10;;;4.00;;
36817;SDS011;22761;51.542;16.450;2023-05-03T00:22:42;10.30;;;3.50;;
36817;SDS011;22761;51.542;16.450;2023-05-03T00:25:10;10.40;;;3.60;;
36817;SDS011;22761;51.542;16.450;2023-05-03T00:27:38;8.60;;;3.30;;
36817;SDS011;22761;51.542;16.450;2023-05-03T00:30:07;8.20;;;3.60;;
36817;SDS011;22761;51.542;16.450;2023-05-03T00:32:37;9.00;;;4.00;;
36817;SDS011;22761;51.542;16.450;2023-05-03T00:35:05;12.60;;;4.00;;
36817;SDS011;22761;51.542;16.450;2023-05-03T00:37:34;9.80;;;3.60;;
36817;SDS011;22761;51.542;16.450;2023-05-03T00:40:03;11.00;;;4.20;;
36817;SDS011;22761;51.542;16.450;2023-05-03T00:42:34;9.90;;;3.60;;
36817;SDS011;22761;51.542;16.450;2023-05-03T00:45:03;9.10;;;4.10;;
36817;SDS011;22761;51.542;16.450;2023-05-03T00:47:33;11.60;;;4.20;;
36817;SDS011;22761;51.542;16.450;2023-05-03T00:50:03;12.30;;;4.50;;
36817;SDS011;22761;51.542;16.450;2023-05-03T00:52:33;12.10;;;4.10;;
36817;SDS011;22761;51.542;16.450;2023-05-03T00:55:01;8.10;;;3.90;;
36817;SDS011;22761;51.542;16.450;2023-05-03T00:57:29;8.40;;;4.10;;
36817;SDS011;22761;51.542;16.450;2023-05-03T00:59:58;8.20;;;4.40;;
36817;SDS011;22761;51.542;16.450;2023-05-03T01:02:26;9.00;;;3.90;;
36817;SDS011;22761;51.542;16.450;2023-05-03T01:04:55;10.70;;;4.30;;
36817;SDS011;22761;51.542;16.450;2023-05-03T01:08:08;10.10;;;4.20;;
36817;SDS011;22761;51.542;16.450;2023-05-03T01:13:12;8.60;;;3.70;;
36817;SDS011;22761;51.542;16.450;2023-05-03T01:18:46;7.00;;;4.10;;
36817;SDS011;22761;51.542;16.450;2023-05-03T01:21:16;9.20;;;4.00;;
36817;SDS011;22761;51.542;16.450;2023-05-03T01:26:44;13.50;;;4.30;;
36817;SDS011;22761;51.542;16.450;2023-05-03T01:29:13;8.80;;;3.90;;
36817;SDS011;22761;51.542;16.450;2023-05-03T01:31:49;7.80;;;4.50;;
36817;SDS011;22761;51.542;16.450;2023-05-03T01:34:39;9.20;;;4.00;;
36817;SDS011;22761;51.542;16.450;2023-05-03T01:37:18;10.60;;;4.20;;
36817;SDS011;22761;51.542;16.450;2023-05-03T01:39:49;8.40;;;3.60;;
36817;SDS011;22761;51.542;16.450;2023-05-03T01:42:23;11.70;;;3.90;;
36817;SDS011;22761;51.542;16.450;2023-05-03T01:44:51;7.90;;;4.20;;
36817;SDS011;22761;51.542;16.450;2023-05-03T01:47:20;9.60;;;4.00;;
36817;SDS011;22761;51.542;16.450;2023-05-03T01:49:49;8.50;;;4.30;;
36817;SDS011;22761;51.542;16.450;2023-05-03T01:52:18;9.10;;;3.80;;
36817;SDS011;22761;51.542;16.450;2023-05-03T01:54:46;8.10;;;4.20;;
36817;SDS011;22761;51.542;16.450;2023-05-03T01:57:14;8.20;;;4.20;;
36817;SDS011;22761;51.542;16.450;2023-05-03T01:59:42;14.20;;;4.40;;
36817;SDS011;22761;51.542;16.450;2023-05-03T02:02:10;7.80;;;3.60;;
36817;SDS011;22761;51.542;16.450;2023-05-03T02:04:40;8.30;;;3.80;;
36817;SDS011;22761;51.542;16.450;2023-05-03T02:07:09;7.90;;;3.70;;
36817;SDS011;22761;51.542;16.450;2023-05-03T02:09:37;9.00;;;4.10;;
36817;SDS011;22761;51.542;16.450;2023-05-03T02:12:06;9.50;;;3.90;;
36817;SDS011;22761;51.542;16.450;2023-05-03T02:14:35;8.90;;;3.60;;
36817;SDS011;22761;51.542;16.450;2023-05-03T02:17:03;7.20;;;3.90;;
36817;SDS011;22761;51.542;16.450;2023-05-03T02:19:31;10.20;;;4.50;;
36817;SDS011;22761;51.542;16.450;2023-05-03T02:22:00;8.40;;;4.20;;
36817;SDS011;22761;51.542;16.450;2023-05-03T02:24:28;8.50;;;3.90;;
36817;SDS011;22761;51.542;16.450;2023-05-03T02:26:57;11.30;;;3.80;;
36817;SDS011;22761;51.542;16.450;2023-05-03T02:29:26;9.70;;;3.90;;
36817;SDS011;22761;51.542;16.450;2023-05-03T02:31:54;8.60;;;4.20;;
36817;SDS011;22761;51.542;16.450;2023-05-03T02:34:22;8.80;;;3.90;;
36817;SDS011;22761;51.542;16.450;2023-05-03T02:36:51;8.80;;;3.70;;
36817;SDS011;22761;51.542;16.450;2023-05-03T02:39:20;12.20;;;4.00;;
36817;SDS011;22761;51.542;16.450;2023-05-03T02:41:50;8.40;;;4.00;;
36817;SDS011;22761;51.542;16.450;2023-05-03T02:44:18;9.10;;;3.50;;
36817;SDS011;22761;51.542;16.450;2023-05-03T02:46:46;8.10;;;3.50;;
36817;SDS011;22761;51.542;16.450;2023-05-03T02:49:15;9.20;;;4.40;;
36817;SDS011;22761;51.542;16.450;2023-05-03T02:51:44;12.00;;;3.80;;
36817;SDS011;22761;51.542;16.450;2023-05-03T02:54:12;7.30;;;4.00;;
36817;SDS011;22761;51.542;16.450;2023-05-03T02:56:41;8.60;;;3.60;;
36817;SDS011;22761;51.542;16.450;2023-05-03T02:59:09;11.70;;;4.30;;
36817;SDS011;22761;51.542;16.450;2023-05-03T03:01:38;9.30;;;3.90;;
36817;SDS011;22761;51.542;16.450;2023-05-03T03:04:08;11.60;;;4.20;;
36817;SDS011;22761;51.542;16.450;2023-05-03T03:06:36;9.10;;;4.20;;
36817;SDS011;22761;51.542;16.450;2023-05-03T03:09:05;8.00;;;4.00;;
36817;SDS011;22761;51.542;16.450;2023-05-03T03:11:34;10.10;;;4.10;;
36817;SDS011;22761;51.542;16.450;2023-05-03T03:14:03;6.90;;;3.80;;
36817;SDS011;22761;51.542;16.450;2023-05-03T03:16:31;11.80;;;3.70;;
36817;SDS011;22761;51.542;16.450;2023-05-03T03:18:59;7.50;;;3.50;;
36817;SDS011;22761;51.542;16.450;2023-05-03T03:21:27;10.50;;;3.80;;
36817;SDS011;22761;51.542;16.450;2023-05-03T03:23:56;15.90;;;4.50;;
36817;SDS011;22761;51.542;16.450;2023-05-03T03:26:24;8.50;;;3.80;;
36817;SDS011;22761;51.542;16.450;2023-05-03T03:28:53;12.00;;;3.90;;
36817;SDS011;22761;51.542;16.450;2023-05-03T03:31:21;6.70;;;3.90;;
36817;SDS011;22761;51.542;16.450;2023-05-03T03:33:50;7.30;;;3.20;;
36817;SDS011;22761;51.542;16.450;2023-05-03T03:36:19;8.10;;;3.90;;
36817;SDS011;22761;51.542;16.450;2023-05-03T03:38:48;12.10;;;3.90;;
36817;SDS011;22761;51.542;16.450;2023-05-03T03:41:16;10.30;;;3.80;;
36817;SDS011;22761;51.542;16.450;2023-05-03T03:43:44;10.60;;;4.60;;
36817;SDS011;22761;51.542;16.450;2023-05-03T03:48:44;8.30;;;3.80;;
36817;SDS011;22761;51.542;16.450;2023-05-03T03:51:12;9.80;;;3.60;;
36817;SDS011;22761;51.542;16.450;2023-05-03T03:53:43;8.50;;;3.50;;
36817;SDS011;22761;51.542;16.450;2023-05-03T03:56:12;11.10;;;4.00;;
36817;SDS011;22761;51.542;16.450;2023-05-03T03:58:41;9.00;;;3.70;;
36817;SDS011;22761;51.542;16.450;2023-05-03T04:01:10;8.60;;;3.70;;
36817;SDS011;22761;51.542;16.450;2023-05-03T04:03:39;8.10;;;3.90;;
36817;SDS011;22761;51.542;16.450;2023-05-03T04:06:07;11.70;;;4.00;;
36817;SDS011;22761;51.542;16.450;2023-05-03T04:08:36;7.90;;;3.50;;
36817;SDS011;22761;51.542;16.450;2023-05-03T04:11:08;9.60;;;3.50;;
36817;SDS011;22761;51.542;16.450;2023-05-03T04:13:41;9.90;;;3.40;;
36817;SDS011;22761;51.542;16.450;2023-05-03T04:16:10;8.80;;;3.90;;
36817;SDS011;22761;51.542;16.450;2023-05-03T04:18:39;9.70;;;3.50;;
36817;SDS011;22761;51.542;16.450;2023-05-03T04:21:08;9.50;;;3.50;;
36817;SDS011;22761;51.542;16.450;2023-05-03T04:23:36;9.40;;;3.50;;
36817;SDS011;22761;51.542;16.450;2023-05-03T04:26:06;8.40;;;3.60;;
36817;SDS011;22761;51.542;16.450;2023-05-03T04:28:47;8.10;;;3.60;;
36817;SDS011;22761;51.542;16.450;2023-05-03T04:31:15;8.50;;;3.30;;
36817;SDS011;22761;51.542;16.450;2023-05-03T04:33:44;10.70;;;3.50;;
36817;SDS011;22761;51.542;16.450;2023-05-03T04:36:12;9.30;;;3.40;;
36817;SDS011;22761;51.542;16.450;2023-05-03T04:38:44;12.30;;;3.70;;
36817;SDS011;22761;51.542;16.450;2023-05-03T04:41:13;7.80;;;3.40;;
36817;SDS011;22761;51.542;16.450;2023-05-03T04:43:46;6.50;;;3.40;;
36817;SDS011;22761;51.542;16.450;2023-05-03T04:46:15;10.10;;;3.50;;
36817;SDS011;22761;51.542;16.450;2023-05-03T04:48:45;9.00;;;3.60;;
36817;SDS011;22761;51.542;16.450;2023-05-03T04:51:14;10.50;;;3.50;;
36817;SDS011;22761;51.542;16.450;2023-05-03T04:53:42;7.80;;;3.70;;
36817;SDS011;22761;51.542;16.450;2023-05-03T04:56:14;7.90;;;3.90;;
36817;SDS011;22761;51.542;16.450;2023-05-03T04:58:43;7.60;;;3.60;;
36817;SDS011;22761;51.542;16.450;2023-05-03T05:01:12;10.50;;;3.60;;
36817;SDS011;22761;51.542;16.450;2023-05-03T05:03:41;7.00;;;3.30;;
36817;SDS011;22761;51.542;16.450;2023-05-03T05:06:14;8.40;;;4.20;;
36817;SDS011;22761;51.542;16.450;2023-05-03T05:08:42;12.20;;;3.80;;
36817;SDS011;22761;51.542;16.450;2023-05-03T05:11:12;6.00;;;2.90;;
36817;SDS011;22761;51.542;16.450;2023-05-03T05:13:41;5.80;;;2.90;;
36817;SDS011;22761;51.542;16.450;2023-05-03T05:16:09;9.00;;;3.40;;
36817;SDS011;22761;51.542;16.450;2023-05-03T05:18:39;8.90;;;3.50;;
36817;SDS011;22761;51.542;16.450;2023-05-03T05:21:09;6.80;;;3.50;;
36817;SDS011;22761;51.542;16.450;2023-05-03T05:23:38;11.60;;;3.70;;
36817;SDS011;22761;51.542;16.450;2023-05-03T05:26:07;8.70;;;3.30;;
36817;SDS011;22761;51.542;16.450;2023-05-03T05:28:38;9.70;;;3.50;;
36817;SDS011;22761;51.542;16.450;2023-05-03T05:31:07;8.80;;;3.30;;
36817;SDS011;22761;51.542;16.450;2023-05-03T05:33:35;9.80;;;3.90;;
36817;SDS011;22761;51.542;16.450;2023-05-03T05:36:04;8.50;;;3.30;;
36817;SDS011;22761;51.542;16.450;2023-05-03T05:38:33;12.50;;;3.70;;
36817;SDS011;22761;51.542;16.450;2023-05-03T05:41:02;9.20;;;3.60;;
36817;SDS011;22761;51.542;16.450;2023-05-03T05:43:33;8.50;;;3.60;;
36817;SDS011;22761;51.542;16.450;2023-05-03T05:46:01;7.20;;;3.60;;
36817;SDS011;22761;51.542;16.450;2023-05-03T05:48:30;8.40;;;3.40;;
36817;SDS011;22761;51.542;16.450;2023-05-03T05:50:59;8.40;;;3.70;;
36817;SDS011;22761;51.542;16.450;2023-05-03T05:53:28;9.50;;;3.70;;
36817;SDS011;22761;51.542;16.450;2023-05-03T05:55:58;8.10;;;3.90;;
36817;SDS011;22761;51.542;16.450;2023-05-03T05:58:27;8.40;;;3.00;;
36817;SDS011;22761;51.542;16.450;2023-05-03T06:00:57;6.60;;;3.30;;
36817;SDS011;22761;51.542;16.450;2023-05-03T06:03:28;6.10;;;3.30;;
36817;SDS011;22761;51.542;16.450;2023-05-03T06:05:56;5.90;;;2.80;;
36817;SDS011;22761;51.542;16.450;2023-05-03T06:08:25;6.70;;;3.20;;
36817;SDS011;22761;51.542;16.450;2023-05-03T06:10:53;10.00;;;3.20;;
36817;SDS011;22761;51.542;16.450;2023-05-03T06:13:23;8.50;;;3.60;;
36817;SDS011;22761;51.542;16.450;2023-05-03T06:15:52;7.60;;;3.20;;
36817;SDS011;22761;51.542;16.450;2023-05-03T06:18:20;7.60;;;3.20;;
36817;SDS011;22761;51.542;16.450;2023-05-03T06:20:49;8.90;;;3.30;;
36817;SDS011;22761;51.542;16.450;2023-05-03T06:23:18;10.10;;;3.50;;
36817;SDS011;22761;51.542;16.450;2023-05-03T06:25:47;6.80;;;3.30;;
36817;SDS011;22761;51.542;16.450;2023-05-03T06:28:17;9.50;;;3.30;;
36817;SDS011;22761;51.542;16.450;2023-05-03T06:30:48;7.10;;;3.00;;
36817;SDS011;22761;51.542;16.450;2023-05-03T06:33:17;14.70;;;3.30;;
36817;SDS011;22761;51.542;16.450;2023-05-03T06:38:17;4.40;;;2.70;;
36817;SDS011;22761;51.542;16.450;2023-05-03T06:40:46;8.30;;;3.00;;
36817;SDS011;22761;51.542;16.450;2023-05-03T06:43:15;6.30;;;3.00;;
36817;SDS011;22761;51.542;16.450;2023-05-03T06:45:50;7.20;;;3.10;;
36817;SDS011;22761;51.542;16.450;2023-05-03T06:48:19;8.10;;;3.30;;
36817;SDS011;22761;51.542;16.450;2023-05-03T06:50:48;8.30;;;3.20;;
36817;SDS011;22761;51.542;16.450;2023-05-03T06:53:17;9.30;;;3.10;;
36817;SDS011;22761;51.542;16.450;2023-05-03T06:55:45;7.50;;;2.70;;
36817;SDS011;22761;51.542;16.450;2023-05-03T06:58:14;8.80;;;3.20;;
36817;SDS011;22761;51.542;16.450;2023-05-03T07:00:43;9.20;;;3.40;;
36817;SDS011;22761;51.542;16.450;2023-05-03T07:03:12;6.80;;;3.00;;
36817;SDS011;22761;51.542;16.450;2023-05-03T07:05:40;8.10;;;2.90;;
36817;SDS011;22761;51.542;16.450;2023-05-03T07:08:08;7.10;;;3.20;;
36817;SDS011;22761;51.542;16.450;2023-05-03T07:10:37;8.60;;;3.00;;
36817;SDS011;22761;51.542;16.450;2023-05-03T07:13:05;5.90;;;3.40;;
36817;SDS011;22761;51.542;16.450;2023-05-03T07:15:33;10.80;;;3.50;;
36817;SDS011;22761;51.542;16.450;2023-05-03T07:18:01;9.10;;;3.20;;
36817;SDS011;22761;51.542;16.450;2023-05-03T07:20:30;6.70;;;2.60;;
36817;SDS011;22761;51.542;16.450;2023-05-03T07:22:58;5.30;;;2.50;;
36817;SDS011;22761;51.542;16.450;2023-05-03T07:25:28;6.90;;;2.50;;
36817;SDS011;22761;51.542;16.450;2023-05-03T07:27:57;6.80;;;2.40;;
36817;SDS011;22761;51.542;16.450;2023-05-03T07:30:25;5.70;;;2.40;;
36817;SDS011;22761;51.542;16.450;2023-05-03T07:32:53;6.60;;;2.50;;
36817;SDS011;22761;51.542;16.450;2023-05-03T07:35:22;5.60;;;2.50;;
36817;SDS011;22761;51.542;16.450;2023-05-03T07:37:50;5.90;;;2.50;;
36817;SDS011;22761;51.542;16.450;2023-05-03T07:40:19;6.90;;;2.40;;
36817;SDS011;22761;51.542;16.450;2023-05-03T07:42:47;5.70;;;2.30;;
36817;SDS011;22761;51.542;16.450;2023-05-03T07:45:15;5.30;;;2.30;;
36817;SDS011;22761;51.542;16.450;2023-05-03T07:47:44;7.10;;;2.10;;
36817;SDS011;22761;51.542;16.450;2023-05-03T07:50:12;5.80;;;2.00;;
36817;SDS011;22761;51.542;16.450;2023-05-03T07:52:40;7.60;;;2.10;;
36817;SDS011;22761;51.542;16.450;2023-05-03T07:55:10;4.90;;;2.20;;
36817;SDS011;22761;51.542;16.450;2023-05-03T07:57:38;3.00;;;1.60;;
36817;SDS011;22761;51.542;16.450;2023-05-03T08:00:06;6.10;;;2.00;;
36817;SDS011;22761;51.542;16.450;2023-05-03T08:02:41;7.50;;;1.80;;
36817;SDS011;22761;51.542;16.450;2023-05-03T08:05:09;5.00;;;1.80;;
36817;SDS011;22761;51.542;16.450;2023-05-03T08:07:40;5.30;;;1.80;;
36817;SDS011;22761;51.542;16.450;2023-05-03T08:10:09;3.90;;;1.70;;
36817;SDS011;22761;51.542;16.450;2023-05-03T08:12:37;6.10;;;1.60;;
36817;SDS011;22761;51.542;16.450;2023-05-03T08:15:06;7.10;;;1.60;;
36817;SDS011;22761;51.542;16.450;2023-05-03T08:17:38;4.40;;;1.70;;
36817;SDS011;22761;51.542;16.450;2023-05-03T08:20:08;6.30;;;1.70;;
36817;SDS011;22761;51.542;16.450;2023-05-03T08:22:37;5.80;;;2.00;;
36817;SDS011;22761;51.542;16.450;2023-05-03T08:25:07;6.50;;;1.60;;
36817;SDS011;22761;51.542;16.450;2023-05-03T08:27:36;4.10;;;1.70;;
36817;SDS011;22761;51.542;16.450;2023-05-03T08:30:06;5.60;;;1.60;;
36817;SDS011;22761;51.542;16.450;2023-05-03T08:32:35;7.70;;;1.80;;
36817;SDS011;22761;51.542;16.450;2023-05-03T08:35:03;6.00;;;1.60;;
36817;SDS011;22761;51.542;16.450;2023-05-03T08:37:38;4.30;;;1.70;;
36817;SDS011;22761;51.542;16.450;2023-05-03T08:40:07;6.10;;;1.90;;
36817;SDS011;22761;51.542;16.450;2023-05-03T08:42:41;7.90;;;2.30;;
36817;SDS011;22761;51.542;16.450;2023-05-03T08:45:11;5.20;;;1.70;;
36817;SDS011;22761;51.542;16.450;2023-05-03T08:47:42;4.00;;;1.40;;
36817;SDS011;22761;51.542;16.450;2023-05-03T08:50:13;6.10;;;1.80;;
36817;SDS011;22761;51.542;16.450;2023-05-03T08:52:42;5.90;;;1.90;;
36817;SDS011;22761;51.542;16.450;2023-05-03T08:55:11;5.00;;;1.70;;
36817;SDS011;22761;51.542;16.450;2023-05-03T08:57:39;3.30;;;1.50;;
36817;SDS011;22761;51.542;16.450;2023-05-03T09:00:08;4.80;;;2.00;;
36817;SDS011;22761;51.542;16.450;2023-05-03T09:02:40;5.20;;;2.00;;
36817;SDS011;22761;51.542;16.450;2023-05-03T09:10:44;5.70;;;1.60;;
36817;SDS011;22761;51.542;16.450;2023-05-03T09:13:12;5.20;;;2.00;;
36817;SDS011;22761;51.542;16.450;2023-05-03T09:15:40;6.20;;;1.70;;
36817;SDS011;22761;51.542;16.450;2023-05-03T09:20:39;5.00;;;2.10;;
36817;SDS011;22761;51.542;16.450;2023-05-03T09:23:09;6.90;;;2.10;;
36817;SDS011;22761;51.542;16.450;2023-05-03T09:28:13;5.10;;;1.60;;
36817;SDS011;22761;51.542;16.450;2023-05-03T09:30:42;6.60;;;1.80;;
36817;SDS011;22761;51.542;16.450;2023-05-03T09:33:11;5.30;;;2.40;;
36817;SDS011;22761;51.542;16.450;2023-05-03T09:36:00;5.80;;;1.80;;
36817;SDS011;22761;51.542;16.450;2023-05-03T09:38:31;4.90;;;1.80;;
36817;SDS011;22761;51.542;16.450;2023-05-03T09:41:01;6.50;;;1.90;;
36817;SDS011;22761;51.542;16.450;2023-05-03T09:43:33;6.30;;;2.60;;
36817;SDS011;22761;51.542;16.450;2023-05-03T09:46:06;6.00;;;1.80;;
36817;SDS011;22761;51.542;16.450;2023-05-03T09:48:36;5.70;;;1.90;;
36817;SDS011;22761;51.542;16.450;2023-05-03T09:51:06;6.40;;;1.80;;
36817;SDS011;22761;51.542;16.450;2023-05-03T09:53:35;5.00;;;1.60;;
36817;SDS011;22761;51.542;16.450;2023-05-03T09:56:04;6.00;;;2.20;;
36817;SDS011;22761;51.542;16.450;2023-05-03T09:58:43;4.80;;;1.70;;
36817;SDS011;22761;51.542;16.450;2023-05-03T10:01:11;5.40;;;1.50;;
36817;SDS011;22761;51.542;16.450;2023-05-03T10:03:42;5.00;;;1.90;;
36817;SDS011;22761;51.542;16.450;2023-05-03T10:09:10;5.70;;;1.70;;
36817;SDS011;22761;51.542;16.450;2023-05-03T10:12:00;3.10;;;1.40;;
36817;SDS011;22761;51.542;16.450;2023-05-03T10:14:31;6.70;;;1.60;;
36817;SDS011;22761;51.542;16.450;2023-05-03T10:17:04;4.50;;;1.70;;
36817;SDS011;22761;51.542;16.450;2023-05-03T10:19:45;4.00;;;1.50;;
36817;SDS011;22761;51.542;16.450;2023-05-03T10:22:17;4.40;;;1.90;;
36817;SDS011;22761;51.542;16.450;2023-05-03T10:27:40;8.30;;;2.10;;
36817;SDS011;22761;51.542;16.450;2023-05-03T10:32:53;6.70;;;2.30;;
36817;SDS011;22761;51.542;16.450;2023-05-03T10:35:24;5.50;;;1.80;;
36817;SDS011;22761;51.542;16.450;2023-05-03T10:37:54;4.00;;;1.90;;
36817;SDS011;22761;51.542;16.450;2023-05-03T10:40:39;5.90;;;1.50;;
36817;SDS011;22761;51.542;16.450;2023-05-03T10:45:56;5.60;;;1.60;;
36817;SDS011;22761;51.542;16.450;2023-05-03T10:48:26;4.80;;;1.70;;
36817;SDS011;22761;51.542;16.450;2023-05-03T10:50:55;4.50;;;1.80;;
36817;SDS011;22761;51.542;16.450;2023-05-03T10:56:09;4.90;;;1.90;;
36817;SDS011;22761;51.542;16.450;2023-05-03T11:01:11;5.10;;;1.70;;
36817;SDS011;22761;51.542;16.450;2023-05-03T11:06:59;4.60;;;1.90;;
36817;SDS011;22761;51.542;16.450;2023-05-03T11:09:32;4.70;;;1.50;;
36817;SDS011;22761;51.542;16.450;2023-05-03T11:12:07;2.60;;;1.60;;
36817;SDS011;22761;51.542;16.450;2023-05-03T11:14:35;3.50;;;1.60;;
36817;SDS011;22761;51.542;16.450;2023-05-03T11:17:04;3.60;;;1.60;;
36817;SDS011;22761;51.542;16.450;2023-05-03T11:19:32;4.20;;;1.80;;
36817;SDS011;22761;51.542;16.450;2023-05-03T11:22:02;4.20;;;1.70;;
36817;SDS011;22761;51.542;16.450;2023-05-03T11:24:30;6.40;;;2.00;;
36817;SDS011;22761;51.542;16.450;2023-05-03T11:26:58;7.10;;;1.50;;
36817;SDS011;22761;51.542;16.450;2023-05-03T11:29:34;5.50;;;1.90;;
36817;SDS011;22761;51.542;16.450;2023-05-03T11:32:03;3.80;;;1.50;;
36817;SDS011;22761;51.542;16.450;2023-05-03T11:34:31;3.80;;;1.40;;
36817;SDS011;22761;51.542;16.450;2023-05-03T11:37:00;4.60;;;1.60;;
36817;SDS011;22761;51.542;16.450;2023-05-03T11:39:31;4.90;;;1.70;;
36817;SDS011;22761;51.542;16.450;2023-05-03T11:42:04;3.10;;;1.60;;
36817;SDS011;22761;51.542;16.450;2023-05-03T11:44:32;4.00;;;1.80;;
36817;SDS011;22761;51.542;16.450;2023-05-03T11:47:01;4.60;;;1.40;;
36817;SDS011;22761;51.542;16.450;2023-05-03T11:49:30;2.90;;;1.60;;
36817;SDS011;22761;51.542;16.450;2023-05-03T11:51:58;5.10;;;1.70;;
36817;SDS011;22761;51.542;16.450;2023-05-03T11:54:27;2.90;;;1.50;;
36817;SDS011;22761;51.542;16.450;2023-05-03T11:56:56;4.20;;;1.80;;
36817;SDS011;22761;51.542;16.450;2023-05-03T11:59:38;8.10;;;2.10;;
36817;SDS011;22761;51.542;16.450;2023-05-03T12:02:08;7.20;;;2.20;;
36817;SDS011;22761;51.542;16.450;2023-05-03T12:07:10;6.20;;;1.80;;
36817;SDS011;22761;51.542;16.450;2023-05-03T12:09:44;4.10;;;1.50;;
36817;SDS011;22761;51.542;16.450;2023-05-03T12:12:27;5.80;;;1.80;;
36817;SDS011;22761;51.542;16.450;2023-05-03T12:15:02;3.70;;;1.60;;
36817;SDS011;22761;51.542;16.450;2023-05-03T12:17:35;4.20;;;1.80;;
36817;SDS011;22761;51.542;16.450;2023-05-03T12:20:12;4.80;;;1.80;;
36817;SDS011;22761;51.542;16.450;2023-05-03T12:22:51;3.70;;;1.40;;
36817;SDS011;22761;51.542;16.450;2023-05-03T12:25:25;4.00;;;1.60;;
36817;SDS011;22761;51.542;16.450;2023-05-03T12:28:00;4.50;;;1.70;;
36817;SDS011;22761;51.542;16.450;2023-05-03T12:30:32;3.10;;;1.30;;
36817;SDS011;22761;51.542;16.450;2023-05-03T12:33:01;4.20;;;1.20;;
36817;SDS011;22761;51.542;16.450;2023-05-03T12:35:31;3.90;;;1.60;;
36817;SDS011;22761;51.542;16.450;2023-05-03T12:38:01;4.50;;;1.70;;
36817;SDS011;22761;51.542;16.450;2023-05-03T12:40:31;5.30;;;1.50;;
36817;SDS011;22761;51.542;16.450;2023-05-03T12:43:02;5.30;;;2.00;;
36817;SDS011;22761;51.542;16.450;2023-05-03T12:45:30;3.60;;;1.40;;
36817;SDS011;22761;51.542;16.450;2023-05-03T12:48:01;4.00;;;1.50;;
36817;SDS011;22761;51.542;16.450;2023-05-03T12:50:30;5.10;;;1.30;;
36817;SDS011;22761;51.542;16.450;2023-05-03T12:53:01;4.60;;;1.50;;
36817;SDS011;22761;51.542;16.450;2023-05-03T12:55:29;3.20;;;1.50;;
36817;SDS011;22761;51.542;16.450;2023-05-03T12:58:08;2.90;;;1.30;;
36817;SDS011;22761;51.542;16.450;2023-05-03T13:00:39;4.30;;;1.40;;
36817;SDS011;22761;51.542;16.450;2023-05-03T13:03:27;4.80;;;1.30;;
36817;SDS011;22761;51.542;16.450;2023-05-03T13:06:00;5.80;;;1.40;;
36817;SDS011;22761;51.542;16.450;2023-05-03T13:08:40;3.50;;;1.40;;
36817;SDS011;22761;51.542;16.450;2023-05-03T13:11:17;5.70;;;1.30;;
36817;SDS011;22761;51.542;16.450;2023-05-03T13:13:48;4.00;;;1.20;;
36817;SDS011;22761;51.542;16.450;2023-05-03T13:16:19;3.90;;;1.30;;
36817;SDS011;22761;51.542;16.450;2023-05-03T13:18:47;3.90;;;1.40;;
36817;SDS011;22761;51.542;16.450;2023-05-03T13:21:15;5.10;;;1.60;;
36817;SDS011;22761;51.542;16.450;2023-05-03T13:23:43;3.90;;;1.30;;
36817;SDS011;22761;51.542;16.450;2023-05-03T13:26:14;3.40;;;1.50;;
36817;SDS011;22761;51.542;16.450;2023-05-03T13:28:43;4.10;;;1.40;;
36817;SDS011;22761;51.542;16.450;2023-05-03T13:31:11;3.90;;;1.60;;
36817;SDS011;22761;51.542;16.450;2023-05-03T13:33:39;3.20;;;1.30;;
36817;SDS011;22761;51.542;16.450;2023-05-03T13:36:08;3.80;;;1.50;;
36817;SDS011;22761;51.542;16.450;2023-05-03T13:38:38;3.90;;;1.50;;
36817;SDS011;22761;51.542;16.450;2023-05-03T13:41:08;4.00;;;1.40;;
36817;SDS011;22761;51.542;16.450;2023-05-03T13:43:36;4.00;;;1.30;;
36817;SDS011;22761;51.542;16.450;2023-05-03T13:46:05;2.10;;;1.00;;
36817;SDS011;22761;51.542;16.450;2023-05-03T13:48:33;4.60;;;1.40;;
36817;SDS011;22761;51.542;16.450;2023-05-03T13:51:11;3.10;;;1.20;;
36817;SDS011;22761;51.542;16.450;2023-05-03T13:53:41;4.40;;;1.40;;
36817;SDS011;22761;51.542;16.450;2023-05-03T13:56:10;4.40;;;1.50;;
36817;SDS011;22761;51.542;16.450;2023-05-03T13:58:38;3.20;;;1.30;;
36817;SDS011;22761;51.542;16.450;2023-05-03T14:01:06;3.30;;;1.40;;
36817;SDS011;22761;51.542;16.450;2023-05-03T14:03:35;3.50;;;1.70;;
36817;SDS011;22761;51.542;16.450;2023-05-03T14:06:03;3.90;;;1.30;;
36817;SDS011;22761;51.542;16.450;2023-05-03T14:08:31;6.80;;;2.30;;
36817;SDS011;22761;51.542;16.450;2023-05-03T14:10:59;4.40;;;2.00;;
36817;SDS011;22761;51.542;16.450;2023-05-03T14:13:31;3.20;;;1.60;;
36817;SDS011;22761;51.542;16.450;2023-05-03T14:19:03;3.30;;;1.80;;
36817;SDS011;22761;51.542;16.450;2023-05-03T14:21:31;3.60;;;1.80;;
36817;SDS011;22761;51.542;16.450;2023-05-03T14:23:59;4.80;;;1.80;;
36817;SDS011;22761;51.542;16.450;2023-05-03T14:26:28;3.80;;;1.80;;
36817;SDS011;22761;51.542;16.450;2023-05-03T14:28:57;5.40;;;2.10;;
36817;SDS011;22761;51.542;16.450;2023-05-03T14:31:26;9.10;;;3.80;;
36817;SDS011;22761;51.542;16.450;2023-05-03T14:33:54;9.00;;;5.50;;
36817;SDS011;22761;51.542;16.450;2023-05-03T14:36:22;9.40;;;6.70;;
36817;SDS011;22761;51.542;16.450;2023-05-03T14:38:50;7.60;;;2.30;;
36817;SDS011;22761;51.542;16.450;2023-05-03T14:41:19;4.60;;;1.70;;
36817;SDS011;22761;51.542;16.450;2023-05-03T14:43:48;3.70;;;1.20;;
36817;SDS011;22761;51.542;16.450;2023-05-03T14:46:16;3.40;;;1.30;;
36817;SDS011;22761;51.542;16.450;2023-05-03T14:48:44;3.70;;;1.80;;
36817;SDS011;22761;51.542;16.450;2023-05-03T14:51:13;3.80;;;0.90;;
36817;SDS011;22761;51.542;16.450;2023-05-03T14:53:44;4.00;;;1.70;;
36817;SDS011;22761;51.542;16.450;2023-05-03T14:56:12;2.80;;;1.30;;
36817;SDS011;22761;51.542;16.450;2023-05-03T14:58:41;3.50;;;1.50;;
36817;SDS011;22761;51.542;16.450;2023-05-03T15:01:15;3.10;;;1.30;;
36817;SDS011;22761;51.542;16.450;2023-05-03T15:03:47;4.70;;;1.60;;
36817;SDS011;22761;51.542;16.450;2023-05-03T15:06:36;4.10;;;2.10;;
36817;SDS011;22761;51.542;16.450;2023-05-03T15:09:06;5.30;;;1.60;;
36817;SDS011;22761;51.542;16.450;2023-05-03T15:11:36;2.60;;;1.40;;
36817;SDS011;22761;51.542;16.450;2023-05-03T15:14:05;3.70;;;2.00;;
36817;SDS011;22761;51.542;16.450;2023-05-03T15:16:33;7.30;;;1.80;;
36817;SDS011;22761;51.542;16.450;2023-05-03T15:19:03;4.70;;;1.70;;
36817;SDS011;22761;51.542;16.450;2023-05-03T15:21:44;3.60;;;1.50;;
36817;SDS011;22761;51.542;16.450;2023-05-03T15:24:13;4.00;;;1.40;;
36817;SDS011;22761;51.542;16.450;2023-05-03T15:26:41;4.80;;;1.50;;
36817;SDS011;22761;51.542;16.450;2023-05-03T15:29:10;2.90;;;1.40;;
36817;SDS011;22761;51.542;16.450;2023-05-03T15:31:38;4.50;;;1.50;;
36817;SDS011;22761;51.542;16.450;2023-05-03T15:34:06;5.20;;;1.50;;
36817;SDS011;22761;51.542;16.450;2023-05-03T15:36:35;2.60;;;1.40;;
36817;SDS011;22761;51.542;16.450;2023-05-03T15:41:32;4.60;;;1.30;;
36817;SDS011;22761;51.542;16.450;2023-05-03T15:44:01;5.20;;;2.60;;